Time;durP1;ratioP1;P1;durP2;ratioP2;P2;SDS_P1;SDS_P2;PMS_P1;PMS_P2;Temp;Humidity;BMP_temperature;BMP_pressure;BME280_temperature;BME280_humidity;BME280_pressure;Samples;Min_cycle;Max_cycle;Signal;HPM_P1;HPM_P2
2022/12/11 00:01:15;;;;;;;;;2.00;2.00;;;;;10.08;68.05;97031.19;4987806;28;8862;-82
2022/12/11 00:03:45;;;;;;;;;2.20;2.20;;;;;9.74;68.51;97035.06;4990854;28;8866;-78
2022/12/11 00:06:16;;;;;;;;;3.00;3.00;;;;;9.83;68.45;97040.81;5014403;28;8939;-80
2022/12/11 00:08:45;;;;;;;;;2.00;2.00;;;;;9.54;68.95;97050.56;5030871;28;8882;-80
2022/12/11 00:11:16;;;;;;;;;3.00;2.40;;;;;8.96;70.59;97058.72;5046284;28;8863;-77
2022/12/11 00:13:44;;;;;;;;;0.20;0.20;;;;;9.39;70.49;97054.59;5031882;28;8863;-80
2022/12/11 00:16:14;;;;;;;;;1.80;1.80;;;;;9.20;70.30;97058.75;5030212;28;8840;-78
2022/12/11 00:18:42;;;;;;;;;2.00;2.00;;;;;9.61;69.08;97074.63;4997568;28;9588;-80
2022/12/11 00:21:13;;;;;;;;;2.20;2.00;;;;;9.52;69.73;97075.81;5028758;28;8943;-78
2022/12/11 00:23:42;;;;;;;;;1.20;1.20;;;;;9.48;69.39;97080.25;5028631;28;8931;-79
2022/12/11 00:26:14;;;;;;;;;2.00;2.00;;;;;9.48;69.59;97077.66;5012290;28;8841;-79
2022/12/11 00:28:45;;;;;;;;;1.00;1.00;;;;;9.59;70.33;97090.28;5028183;28;8865;-78
2022/12/11 00:31:17;;;;;;;;;1.00;1.00;;;;;9.47;69.20;97089.00;5045066;28;8966;-79
2022/12/11 00:33:47;;;;;;;;;1.00;1.00;;;;;9.43;70.35;97081.34;5028476;28;8857;-78
2022/12/11 00:36:18;;;;;;;;;3.00;1.20;;;;;9.14;70.00;97089.25;5011856;28;8877;-79
2022/12/11 00:38:47;;;;;;;;;0.40;0.40;;;;;9.03;70.80;97113.91;5012187;28;8888;-77
2022/12/11 00:41:17;;;;;;;;;1.00;1.00;;;;;9.19;70.46;97115.13;4995986;28;8957;-78
2022/12/11 00:43:48;;;;;;;;;1.00;1.00;;;;;9.22;70.11;97111.53;5002044;28;8836;-79
2022/12/11 00:46:16;;;;;;;;;1.00;1.00;;;;;9.07;69.66;97123.31;4992553;28;8854;-79
2022/12/11 00:48:47;;;;;;;;;1.20;1.20;;;;;9.28;69.79;97130.41;4992294;28;8933;-80
2022/12/11 00:51:16;;;;;;;;;1.20;1.00;;;;;8.75;71.96;97136.47;5009622;28;8836;-81
2022/12/11 00:53:45;;;;;;;;;2.00;2.00;;;;;9.00;71.72;97133.09;5045574;28;8868;-79
2022/12/11 00:56:16;;;;;;;;;1.00;1.00;;;;;9.03;71.37;97132.13;5028905;28;8848;-78
2022/12/11 00:58:47;;;;;;;;;1.20;1.20;;;;;8.70;71.85;97132.34;5029344;28;8979;-78
2022/12/11 01:01:19;;;;;;;;;4.60;4.60;;;;;9.04;72.10;97121.69;5028255;28;8848;-81
2022/12/11 01:03:48;;;;;;;;;2.00;2.00;;;;;9.09;71.45;97127.56;5031066;28;8962;-78
2022/12/11 01:06:19;;;;;;;;;3.00;2.00;;;;;8.65;72.36;97119.47;5012757;28;9633;-79
2022/12/11 01:10:22;;;;;;;;;1.20;1.20;;;;;8.31;73.88;97123.09;5011723;28;9019;-79
2022/12/11 01:11:36;;;;;;;;;2.40;2.00;;;;;8.53;72.53;97122.47;5011906;28;8990;-77
2022/12/11 01:14:06;;;;;;;;;5.00;3.00;;;;;8.14;74.68;97118.41;5027592;28;9740;-78
2022/12/11 01:16:35;;;;;;;;;2.00;2.00;;;;;8.45;73.52;97119.25;5024267;28;8877;-77
2022/12/11 01:19:04;;;;;;;;;1.00;1.00;;;;;7.89;74.55;97113.09;4988563;28;8868;-79
2022/12/11 01:21:32;;;;;;;;;3.20;3.20;;;;;8.08;75.15;97121.19;4988500;28;8891;-80
2022/12/11 01:24:01;;;;;;;;;3.20;3.20;;;;;8.22;74.38;97132.91;4988415;28;8873;-77
2022/12/11 01:26:30;;;;;;;;;4.20;3.40;;;;;7.98;74.51;97128.41;4972692;28;8895;-80
2022/12/11 01:28:59;;;;;;;;;2.80;2.80;;;;;8.17;73.99;97149.47;4955777;28;9677;-82
2022/12/11 01:31:30;;;;;;;;;3.60;3.60;;;;;8.32;74.05;97148.19;5003360;28;8930;-79
2022/12/11 01:33:58;;;;;;;;;2.80;2.80;;;;;7.97;74.36;97168.22;5004141;28;8954;-79
2022/12/11 01:36:27;;;;;;;;;2.00;2.00;;;;;8.04;74.46;97158.53;5006061;28;8969;-79
2022/12/11 01:38:56;;;;;;;;;2.00;2.00;;;;;7.70;75.32;97166.41;5025147;28;8892;-82
2022/12/11 01:41:25;;;;;;;;;4.20;3.80;;;;;7.98;75.22;97164.75;5008225;28;8858;-77
2022/12/11 01:44:02;;;;;;;;;4.20;3.20;;;;;7.88;74.98;97171.09;5024191;28;8912;-82
2022/12/11 01:46:34;;;;;;;;;3.80;3.80;;;;;7.63;75.35;97181.28;5007510;28;8865;-82
2022/12/11 01:49:05;;;;;;;;;3.20;3.20;;;;;7.82;75.26;97204.97;5045364;28;8909;-78
2022/12/11 01:51:40;;;;;;;;;4.20;2.00;;;;;7.70;74.75;97197.53;4995080;28;8890;-80
2022/12/11 01:54:13;;;;;;;;;0.20;0.20;;;;;7.82;74.88;97202.38;5012372;28;8969;-82
2022/12/11 01:56:44;;;;;;;;;3.00;2.00;;;;;7.75;73.03;97187.88;5045956;28;9731;-81
2022/12/11 01:59:17;;;;;;;;;4.60;4.60;;;;;7.39;75.24;97217.34;5012478;28;8894;-81
2022/12/11 02:01:54;;;;;;;;;1.80;1.80;;;;;7.72;74.58;97217.34;5061698;28;8859;-82
2022/12/11 02:04:24;;;;;;;;;1.40;1.40;;;;;7.82;73.94;97220.53;5028590;28;8887;-79
2022/12/11 02:06:53;;;;;;;;;1.00;1.00;;;;;7.53;74.47;97237.72;4979465;28;8966;-81
2022/12/11 02:09:27;;;;;;;;;2.00;2.00;;;;;7.36;74.94;97238.16;5028241;28;8843;-79
2022/12/11 02:12:02;;;;;;;;;1.20;1.20;;;;;7.67;73.84;97239.97;5041849;28;8853;-78
2022/12/11 02:14:38;;;;;;;;;2.00;2.00;;;;;6.89;76.70;97247.94;5007514;28;8884;-80
2022/12/11 02:17:13;;;;;;;;;2.00;2.00;;;;;6.78;74.94;97239.53;5010143;28;8846;-81
2022/12/11 02:19:52;;;;;;;;;2.40;1.40;;;;;6.31;76.72;97288.84;4992551;28;9713;-79
2022/12/11 02:22:39;;;;;;;;;1.80;1.80;;;;;6.20;77.91;97277.88;5008342;28;9672;-80
2022/12/11 02:25:20;;;;;;;;;1.00;1.00;;;;;5.97;78.71;97279.19;4993678;28;8858;-79
2022/12/11 02:27:57;;;;;;;;;1.60;1.60;;;;;6.40;78.03;97287.84;5061138;28;8871;-79
2022/12/11 02:30:27;;;;;;;;;6.60;4.80;;;;;6.58;77.53;97268.50;5028083;28;9617;-82
2022/12/11 02:32:58;;;;;;;;;3.60;1.60;;;;;6.21;78.20;97288.19;5011231;28;8890;-79
2022/12/11 02:35:32;;;;;;;;;1.00;1.00;;;;;6.15;78.63;97308.19;5029851;28;8863;-79
2022/12/11 02:38:05;;;;;;;;;2.40;1.40;;;;;6.63;78.13;97311.53;5027561;28;9450;-80
2022/12/11 02:40:39;;;;;;;;;2.00;2.00;;;;;6.96;76.62;97310.84;5043272;28;9713;-79
2022/12/11 02:43:12;;;;;;;;;5.20;4.00;;;;;7.10;76.39;97329.50;5026713;28;8968;-78
2022/12/11 02:45:46;;;;;;;;;2.60;1.80;;;;;6.99;76.34;97331.47;5006589;28;8973;-79
2022/12/11 02:48:17;;;;;;;;;2.00;2.00;;;;;6.68;75.92;97339.91;5006202;28;8864;-78
2022/12/11 02:50:51;;;;;;;;;2.40;2.40;;;;;6.22;77.61;97346.84;5006397;28;8990;-78
2022/12/11 02:53:24;;;;;;;;;1.00;1.00;;;;;6.53;78.20;97358.34;5006752;28;8895;-80
2022/12/11 02:55:59;;;;;;;;;1.60;1.20;;;;;6.47;77.53;97353.28;4990374;28;8893;-81
2022/12/11 02:58:32;;;;;;;;;1.60;1.60;;;;;6.60;76.91;97365.13;4973009;28;8843;-80
2022/12/11 03:01:02;;;;;;;;;1.60;1.60;;;;;6.24;77.94;97368.38;4990291;28;8978;-81
2022/12/11 03:03:31;;;;;;;;;3.00;3.00;;;;;6.38;76.67;97382.78;4990604;28;8860;-80
2022/12/11 03:06:00;;;;;;;;;4.00;4.00;;;;;6.66;75.72;97377.94;4973895;28;8879;-80
2022/12/11 03:08:29;;;;;;;;;2.00;2.00;;;;;6.68;75.47;97383.94;4990464;28;8860;-80
2022/12/11 03:10:57;;;;;;;;;3.20;2.00;;;;;6.02;76.54;97390.34;4990009;28;8981;-82
2022/12/11 03:13:27;;;;;;;;;5.40;4.20;;;;;5.77;78.11;97395.03;4949883;28;8971;-77
2022/12/11 03:16:10;;;;;;;;;1.80;1.80;;;;;6.00;77.35;97392.94;4971664;28;8906;-82
2022/12/11 03:18:43;;;;;;;;;2.40;2.00;;;;;5.86;77.95;97392.31;5006506;28;8842;-80
2022/12/11 03:21:17;;;;;;;;;2.40;2.40;;;;;5.82;78.16;97401.84;5003016;28;8868;-79
2022/12/11 03:23:50;;;;;;;;;2.00;2.00;;;;;5.50;79.49;97396.31;5003382;28;8852;-82
2022/12/11 03:26:22;;;;;;;;;4.00;4.00;;;;;5.21;79.76;97413.94;4986696;28;8861;-81
2022/12/11 03:28:58;;;;;;;;;2.00;2.00;;;;;5.28;80.16;97418.16;4986463;28;8894;-79
2022/12/11 03:31:34;;;;;;;;;2.80;2.80;;;;;4.98;80.62;97426.31;4981122;28;8862;-80
2022/12/11 03:34:10;;;;;;;;;2.00;2.00;;;;;4.98;81.19;97432.31;5038985;28;8854;-81
2022/12/11 03:36:40;;;;;;;;;5.20;5.20;;;;;5.18;81.09;97428.63;5006091;28;8885;-82
2022/12/11 03:39:15;;;;;;;;;2.00;2.00;;;;;5.25;80.51;97441.47;5005059;28;8901;-79
2022/12/11 03:41:46;;;;;;;;;6.40;4.00;;;;;5.18;80.46;97442.41;5022496;28;9032;-80
2022/12/11 03:44:17;;;;;;;;;4.00;4.00;;;;;5.32;80.33;97449.97;5000573;28;8859;-83
2022/12/11 03:46:50;;;;;;;;;4.80;4.40;;;;;5.65;78.49;97433.13;5060269;28;8855;-78
2022/12/11 03:49:23;;;;;;;;;4.00;4.00;;;;;5.05;79.55;97443.44;5026106;28;8862;-78
2022/12/11 03:51:54;;;;;;;;;4.40;4.40;;;;;5.17;80.07;97447.59;5028287;28;8898;-80
2022/12/11 03:54:24;;;;;;;;;4.00;4.00;;;;;5.10;80.92;97456.28;5059995;28;8847;-82
2022/12/11 03:56:57;;;;;;;;;4.80;4.60;;;;;5.22;79.76;97456.16;5028273;28;9581;-82
2022/12/11 03:59:26;;;;;;;;;3.60;2.80;;;;;5.00;81.05;97455.56;5025890;28;8855;-80
2022/12/11 04:01:55;;;;;;;;;4.40;4.40;;;;;5.17;80.30;97463.94;5026474;28;8900;-80
2022/12/11 04:04:24;;;;;;;;;4.60;4.60;;;;;5.11;80.18;97470.94;5027135;28;8847;-80
2022/12/11 04:06:53;;;;;;;;;5.00;5.00;;;;;5.24;80.52;97480.25;5024215;28;8867;-79
2022/12/11 04:09:21;;;;;;;;;5.00;3.60;;;;;5.72;79.10;97484.75;5010533;28;8838;-80
2022/12/11 04:11:50;;;;;;;;;2.80;2.80;;;;;5.75;78.02;97482.97;5009670;28;8850;-80
2022/12/11 04:17:06;;;;;;;;;6.60;4.20;;;;;5.52;77.31;97521.22;5026391;28;8849;-80
2022/12/11 04:25:08;;;;;;;;;7.00;7.00;;;;;5.37;78.32;97536.06;5009907;28;8858;-78
2022/12/11 04:27:49;;;;;;;;;5.80;4.60;;;;;5.02;78.73;97520.97;5028253;28;8899;-78
2022/12/11 04:30:21;;;;;;;;;8.20;7.00;;;;;5.35;78.63;97536.94;5010242;28;8830;-80
2022/12/11 04:32:52;;;;;;;;;5.60;5.60;;;;;5.42;78.20;97554.09;5009167;28;8838;-81
2022/12/11 04:35:22;;;;;;;;;8.20;7.00;;;;;5.62;77.60;97557.28;4994350;28;8909;-79
2022/12/11 04:37:51;;;;;;;;;5.00;5.00;;;;;5.54;77.54;97547.91;5026976;28;9069;-81
2022/12/11 04:40:21;;;;;;;;;5.40;4.20;;;;;5.46;77.83;97559.22;5060621;28;8868;-80
2022/12/11 04:42:49;;;;;;;;;4.80;4.60;;;;;5.38;76.77;97571.34;5027796;28;8840;-80
2022/12/11 04:45:18;;;;;;;;;6.40;5.00;;;;;5.74;77.15;97570.94;5029371;28;8859;-80
2022/12/11 04:47:46;;;;;;;;;6.80;5.80;;;;;5.50;77.43;97585.00;5029383;28;8851;-80
2022/12/11 04:50:17;;;;;;;;;5.40;4.00;;;;;5.25;77.64;97585.28;5029195;28;8860;-79
2022/12/11 04:52:45;;;;;;;;;7.00;6.80;;;;;5.27;77.96;97589.59;5030369;28;8996;-81
2022/12/11 04:55:14;;;;;;;;;7.60;6.80;;;;;5.09;76.79;97597.53;5046091;28;8940;-79
2022/12/11 04:57:43;;;;;;;;;6.80;5.20;;;;;5.58;76.61;97590.97;5031569;28;9005;-79
2022/12/11 05:00:13;;;;;;;;;5.00;5.00;;;;;5.61;75.68;97598.66;4980161;28;8879;-80
2022/12/11 05:02:42;;;;;;;;;4.80;4.00;;;;;5.56;75.98;97603.06;5029800;28;8851;-79
2022/12/11 05:05:12;;;;;;;;;5.20;5.00;;;;;5.78;75.46;97609.63;5029704;28;8903;-80
2022/12/11 05:07:42;;;;;;;;;4.00;4.00;;;;;5.68;75.77;97612.38;4980300;28;8851;-80
2022/12/11 05:10:11;;;;;;;;;5.20;5.20;;;;;6.00;74.67;97623.19;5046482;28;8962;-81
2022/12/11 05:12:39;;;;;;;;;4.00;1.80;;;;;6.16;73.69;97629.03;5028676;28;8867;-79
2022/12/11 05:15:09;;;;;;;;;4.00;4.00;;;;;6.46;72.77;97637.22;5046058;28;8844;-82
2022/12/11 05:17:38;;;;;;;;;4.00;4.00;;;;;6.28;71.93;97624.56;4991967;28;9053;-81
2022/12/11 05:20:08;;;;;;;;;3.60;3.60;;;;;6.08;73.58;97633.44;4976300;28;9838;-82
2022/12/11 05:22:37;;;;;;;;;5.00;4.40;;;;;6.14;73.12;97635.09;4945015;28;9601;-83
2022/12/11 05:25:08;;;;;;;;;5.00;5.00;;;;;6.02;73.82;97628.34;4976123;28;8918;-80
2022/12/11 05:27:37;;;;;;;;;7.80;7.80;;;;;5.68;76.22;97630.47;4992110;28;8863;-81
2022/12/11 05:30:07;;;;;;;;;8.20;7.20;;;;;5.14;77.48;97647.44;4975047;28;8844;-78
2022/12/11 05:32:35;;;;;;;;;6.40;5.80;;;;;5.84;75.54;97642.34;4991384;28;8840;-83
2022/12/11 05:35:05;;;;;;;;;9.00;6.80;;;;;5.82;75.81;97647.56;5021140;28;8853;-78
2022/12/11 05:37:34;;;;;;;;;6.80;5.00;;;;;5.55;75.68;97646.13;4979096;28;9163;-81
2022/12/11 05:40:05;;;;;;;;;9.00;8.80;;;;;5.53;76.61;97663.38;5011403;28;8842;-80
2022/12/11 05:42:35;;;;;;;;;7.20;7.20;;;;;5.47;75.40;97653.97;5027947;28;8865;-82
2022/12/11 05:45:05;;;;;;;;;5.40;5.40;;;;;5.13;77.10;97658.63;4976914;28;8858;-78
2022/12/11 05:47:33;;;;;;;;;3.60;3.60;;;;;5.84;76.00;97663.91;4996845;28;9004;-81
2022/12/11 05:50:02;;;;;;;;;5.00;5.00;;;;;5.79;74.97;97673.44;5051376;28;8849;-81
2022/12/11 05:52:32;;;;;;;;;8.00;7.00;;;;;5.85;74.29;97665.59;5034326;28;8876;-82
2022/12/11 05:55:00;;;;;;;;;15.00;11.20;;;;;5.97;74.44;97680.16;5017067;28;8830;-78
2022/12/11 05:57:29;;;;;;;;;6.60;4.60;;;;;5.42;75.42;97689.34;5034532;28;8853;-78
2022/12/11 05:59:59;;;;;;;;;5.80;5.80;;;;;5.22;75.26;97693.88;5038919;28;8865;-78
2022/12/11 06:02:27;;;;;;;;;6.40;6.40;;;;;5.74;74.76;97698.47;5073182;28;9064;-79
2022/12/11 06:04:56;;;;;;;;;8.00;6.80;;;;;5.83;74.11;97692.38;5075297;28;8839;-79
2022/12/11 06:07:25;;;;;;;;;7.80;6.20;;;;;5.75;72.58;97691.59;5032464;28;8855;-79
2022/12/11 06:09:53;;;;;;;;;8.60;8.60;;;;;5.30;74.71;97706.72;5031500;28;8966;-78
2022/12/11 06:12:22;;;;;;;;;9.80;6.80;;;;;5.15;76.11;97700.81;5047008;28;8844;-78
2022/12/11 06:14:50;;;;;;;;;18.80;18.60;;;;;5.35;75.26;97710.09;5030114;28;8871;-80
2022/12/11 06:17:20;;;;;;;;;12.60;11.20;;;;;5.75;74.29;97712.28;5034122;28;8855;-80
2022/12/11 06:19:49;;;;;;;;;10.20;8.40;;;;;5.64;73.75;97718.41;5031199;28;8832;-80
2022/12/11 06:22:17;;;;;;;;;9.80;7.40;;;;;5.40;74.29;97711.75;4964017;28;8962;-78
2022/12/11 06:24:46;;;;;;;;;8.40;7.20;;;;;5.00;75.83;97726.78;5030487;28;8867;-80
2022/12/11 06:27:15;;;;;;;;;9.40;8.60;;;;;5.26;75.70;97723.97;5031777;28;8883;-79
2022/12/11 06:29:44;;;;;;;;;7.40;7.00;;;;;5.53;74.98;97727.16;5032769;28;8835;-79
2022/12/11 06:32:12;;;;;;;;;10.20;8.60;;;;;5.61;74.56;97725.34;5032035;28;8844;-80
2022/12/11 06:34:42;;;;;;;;;8.80;8.20;;;;;5.46;74.02;97721.19;5000063;28;8863;-79
2022/12/11 06:37:11;;;;;;;;;10.60;9.80;;;;;4.89;76.28;97726.84;5031188;28;8867;-81
2022/12/11 06:39:39;;;;;;;;;5.80;4.60;;;;;4.68;77.67;97733.00;5063237;28;8895;-81
2022/12/11 06:42:08;;;;;;;;;10.00;10.00;;;;;4.72;77.54;97741.59;5029869;28;8856;-81
2022/12/11 06:44:37;;;;;;;;;11.60;10.40;;;;;4.94;76.25;97745.75;5031875;28;8962;-81
2022/12/11 06:47:05;;;;;;;;;13.60;12.80;;;;;4.93;76.52;97743.16;5013676;28;8868;-82
2022/12/11 06:49:34;;;;;;;;;21.60;16.40;;;;;4.99;75.98;97746.59;5013781;28;8862;-81
2022/12/11 06:52:05;;;;;;;;;15.20;12.80;;;;;4.69;77.07;97748.50;5027760;28;8893;-82
2022/12/11 06:54:34;;;;;;;;;12.00;11.00;;;;;4.85;77.76;97764.72;5030379;28;8844;-80
2022/12/11 06:57:04;;;;;;;;;14.20;12.80;;;;;4.67;78.00;97760.56;5030369;28;8998;-83
2022/12/11 06:59:33;;;;;;;;;22.80;20.40;;;;;4.52;78.03;97768.41;5027113;28;8850;-81
2022/12/11 07:02:02;;;;;;;;;20.60;19.40;;;;;4.39;77.88;97765.00;5008026;28;8856;-82
2022/12/11 07:04:31;;;;;;;;;17.40;13.80;;;;;4.19;79.77;97770.25;5010938;28;8864;-81
2022/12/11 07:06:59;;;;;;;;;14.40;14.40;;;;;4.52;79.01;97760.66;5026122;28;8895;-82
2022/12/11 07:09:30;;;;;;;;;10.00;10.00;;;;;4.06;78.92;97766.00;5024219;28;9022;-82
2022/12/11 07:11:58;;;;;;;;;21.60;20.00;;;;;4.25;79.33;97780.56;4992722;28;8858;-81
2022/12/11 07:14:27;;;;;;;;;23.25;22.75;;;;;4.01;78.86;97785.81;5006066;28;8878;-80
2022/12/11 07:16:56;;;;;;;;;18.20;17.00;;;;;3.89;79.66;97802.13;5006055;28;9738;-82
2022/12/11 07:19:24;;;;;;;;;17.80;16.20;;;;;4.03;79.86;97807.28;4990062;28;8874;-78
2022/12/11 07:21:53;;;;;;;;;20.40;20.20;;;;;4.07;79.31;97819.31;4992882;28;8868;-81
2022/12/11 07:24:22;;;;;;;;;29.75;26.00;;;;;4.56;78.14;97813.13;4989952;28;8877;-82
2022/12/11 07:26:52;;;;;;;;;20.00;18.00;;;;;4.30;78.30;97830.41;4988942;28;8878;-80
2022/12/11 07:29:21;;;;;;;;;26.20;18.40;;;;;4.28;79.04;97831.28;4994539;28;8987;-81
2022/12/11 07:31:50;;;;;;;;;22.00;16.25;;;;;4.72;77.71;97839.72;4977345;28;8900;-80
2022/12/11 07:34:18;;;;;;;;;20.25;17.00;;;;;4.54;76.73;97845.78;5022146;28;8859;-80
2022/12/11 07:36:47;;;;;;;;;26.75;23.00;;;;;4.86;77.22;97848.25;5028052;28;8860;-78
2022/12/11 07:39:16;;;;;;;;;26.50;24.25;;;;;5.01;76.52;97855.91;5028596;28;8961;-79
2022/12/11 07:41:45;;;;;;;;;23.50;22.25;;;;;5.07;75.41;97855.03;5029064;28;9608;-78
2022/12/11 07:44:17;;;;;;;;;21.60;18.00;;;;;4.45;77.43;97865.63;5024852;28;8856;-77
2022/12/11 07:46:46;;;;;;;;;16.60;16.00;;;;;4.37;77.24;97867.38;5009083;28;8874;-78
2022/12/11 07:49:15;;;;;;;;;25.50;22.00;;;;;4.66;77.17;97884.47;4979285;28;8852;-78
2022/12/11 07:51:44;;;;;;;;;20.80;19.80;;;;;4.60;77.87;97885.38;4998822;28;8836;-79
2022/12/11 07:54:15;;;;;;;;;19.80;18.00;;;;;4.32;77.40;97896.63;4995038;28;8859;-75
2022/12/11 07:56:45;;;;;;;;;15.80;15.80;;;;;4.24;78.15;97902.66;5005614;28;9585;-78
2022/12/11 07:59:22;;;;;;;;;23.50;20.25;;;;;4.56;76.96;97901.72;4982206;28;8860;-77
2022/12/11 08:01:51;;;;;;;;;20.40;19.80;;;;;4.61;77.15;97907.75;5019711;28;8883;-80
2022/12/11 08:04:19;;;;;;;;;25.00;21.00;;;;;4.55;77.35;97900.00;5002069;28;8906;-79
2022/12/11 08:06:48;;;;;;;;;24.25;19.75;;;;;4.22;78.43;97914.72;5021477;28;10093;-80
2022/12/11 08:09:21;;;;;;;;;31.00;21.40;;;;;4.19;78.31;97913.84;4988641;28;8965;-78
2022/12/11 08:11:50;;;;;;;;;23.25;19.25;;;;;4.68;77.90;97914.59;5006692;28;9002;-78
2022/12/11 08:14:19;;;;;;;;;23.00;21.60;;;;;4.53;77.24;97929.28;5007126;28;8864;-79
2022/12/11 08:16:49;;;;;;;;;20.25;20.00;;;;;4.92;76.59;97924.84;4979731;28;8876;-76
2022/12/11 08:19:18;;;;;;;;;22.00;21.20;;;;;5.33;75.09;97918.59;5005380;28;9012;-81
2022/12/11 08:21:47;;;;;;;;;18.60;18.00;;;;;4.75;76.79;97937.81;5023894;28;9010;-80
2022/12/11 08:24:19;;;;;;;;;20.80;20.80;;;;;4.94;77.28;97936.88;5044636;28;8867;-79
2022/12/11 08:26:48;;;;;;;;;18.00;16.60;;;;;5.02;75.29;97945.44;5032831;28;8978;-79
2022/12/11 08:29:17;;;;;;;;;18.00;16.20;;;;;4.45;76.44;97939.63;5030528;28;8867;-80
2022/12/11 08:31:46;;;;;;;;;23.60;19.00;;;;;4.95;77.05;97945.47;5013822;28;8860;-80
2022/12/11 08:34:17;;;;;;;;;23.00;22.25;;;;;5.42;75.30;97953.00;5028937;28;8856;-79
2022/12/11 08:36:45;;;;;;;;;23.00;20.80;;;;;5.56;74.46;97946.91;5068461;28;8859;-80
2022/12/11 08:39:14;;;;;;;;;19.20;17.60;;;;;5.22;75.36;97944.50;5053101;28;8984;-79
2022/12/11 08:41:42;;;;;;;;;34.75;30.75;;;;;5.31;75.57;97947.03;5052761;28;9010;-80
2022/12/11 08:44:13;;;;;;;;;20.60;20.60;;;;;4.99;75.44;97948.06;5069113;28;8835;-80
2022/12/11 08:46:44;;;;;;;;;28.60;20.40;;;;;4.91;76.97;97944.63;5068574;28;8848;-76
2022/12/11 08:49:13;;;;;;;;;23.50;20.75;;;;;4.57;77.01;97955.06;5068919;28;8859;-81
2022/12/11 08:51:43;;;;;;;;;25.50;21.00;;;;;4.74;78.29;97959.31;5066888;28;8836;-78
2022/12/11 08:54:12;;;;;;;;;14.80;13.00;;;;;4.62;77.74;97955.91;5051586;28;8855;-78
2022/12/11 08:56:40;;;;;;;;;25.20;21.60;;;;;4.92;77.11;97958.44;5051346;28;8952;-81
2022/12/11 08:59:09;;;;;;;;;23.60;19.80;;;;;4.79;78.01;97970.50;5020067;28;8983;-80
2022/12/11 09:01:38;;;;;;;;;24.25;22.50;;;;;4.86;78.06;97965.31;5067358;28;9170;-81
2022/12/11 09:04:07;;;;;;;;;18.20;17.60;;;;;5.05;76.84;97971.28;5047962;28;8896;-77
2022/12/11 09:06:35;;;;;;;;;22.50;21.50;;;;;5.57;75.51;97959.81;4974253;28;8875;-81
2022/12/11 09:09:06;;;;;;;;;19.40;19.40;;;;;4.64;77.12;97968.81;4989363;28;8860;-79
2022/12/11 09:11:37;;;;;;;;;19.80;17.40;;;;;5.16;75.95;97960.03;4956112;28;8984;-79
2022/12/11 09:14:06;;;;;;;;;24.75;19.25;;;;;5.18;76.09;97960.88;4988941;28;8895;-79
2022/12/11 09:16:39;;;;;;;;;21.50;21.00;;;;;5.35;75.41;97947.88;4988440;28;8880;-79
2022/12/11 09:19:11;;;;;;;;;23.60;20.60;;;;;5.43;74.79;97957.31;4972145;28;8884;-81
2022/12/11 09:21:40;;;;;;;;;23.75;20.25;;;;;5.53;75.54;97962.44;4972001;28;8860;-78
2022/12/11 09:24:12;;;;;;;;;26.00;22.00;;;;;5.78;73.74;97965.72;4970780;28;8856;-78
2022/12/11 09:26:41;;;;;;;;;21.80;20.20;;;;;5.61;73.67;97956.34;4972126;28;8887;-77
2022/12/11 09:29:11;;;;;;;;;22.60;20.40;;;;;5.65;73.96;97955.47;4988503;28;10151;-82
2022/12/11 09:31:39;;;;;;;;;25.00;23.25;;;;;4.95;75.19;97941.16;4972162;28;8864;-79
2022/12/11 09:34:11;;;;;;;;;25.80;22.60;;;;;4.60;77.31;97939.56;4987332;28;8864;-79
2022/12/11 09:36:40;;;;;;;;;21.40;20.60;;;;;5.35;75.60;97927.19;4939000;28;8864;-82
2022/12/11 09:39:12;;;;;;;;;30.75;27.75;;;;;5.14;75.71;97933.34;5011160;28;8902;-81
2022/12/11 09:41:49;;;;;;;;;25.00;23.00;;;;;4.80;76.36;97925.72;5030584;28;8852;-82
2022/12/11 09:44:25;;;;;;;;;10.75;8.75;;;;;4.77;76.83;97939.53;5027449;28;8844;-78
2022/12/11 09:46:54;;;;;;;;;35.50;31.00;;;;;4.69;77.59;97934.38;5028731;28;8855;-80
2022/12/11 09:49:28;;;;;;;;;30.75;26.00;;;;;4.79;76.56;97935.22;5025162;28;8894;-82
2022/12/11 09:52:04;;;;;;;;;23.50;22.00;;;;;4.65;77.72;97939.53;5061176;28;8969;-79
2022/12/11 09:54:35;;;;;;;;;31.25;28.50;;;;;5.03;76.55;97947.19;5062931;28;8869;-79
2022/12/11 09:57:18;;;;;;;;;31.25;29.75;;;;;5.23;76.14;97941.03;5029450;28;8958;-81
2022/12/11 09:59:59;;;;;;;;;40.75;31.00;;;;;5.17;75.96;97954.84;5031733;28;8856;-81
2022/12/11 10:02:46;;;;;;;;;28.75;28.50;;;;;5.55;74.04;97950.34;5029527;28;8882;-79
2022/12/11 10:05:22;;;;;;;;;25.50;24.50;;;;;5.26;75.32;97953.97;5028608;28;8966;-78
2022/12/11 10:07:59;;;;;;;;;21.00;19.25;;;;;5.19;74.38;97942.78;5011488;28;8878;-79
2022/12/11 10:10:41;;;;;;;;;24.25;21.75;;;;;5.59;73.10;97952.88;5010923;28;9012;-80
2022/12/11 10:13:24;;;;;;;;;23.80;21.20;;;;;5.89;73.41;97957.88;5032088;28;8998;-82
2022/12/11 10:15:58;;;;;;;;;24.60;21.80;;;;;5.73;73.09;97954.53;4980552;28;8863;-80
2022/12/11 10:18:29;;;;;;;;;20.20;20.00;;;;;5.71;72.48;97959.72;5029734;28;8890;-79
2022/12/11 10:21:02;;;;;;;;;29.20;23.00;;;;;6.08;72.20;97956.03;5067000;28;8947;-83
2022/12/11 10:23:35;;;;;;;;;28.60;19.40;;;;;5.92;72.27;97963.03;5033256;28;8950;-84
2022/12/11 10:26:08;;;;;;;;;30.00;27.00;;;;;5.94;71.94;97962.16;4983677;28;8949;-79
2022/12/11 10:28:36;;;;;;;;;22.20;21.00;;;;;5.64;72.65;97958.91;4968452;28;8882;-81
2022/12/11 10:31:15;;;;;;;;;27.25;24.75;;;;;5.28;72.88;97958.25;5016434;28;8867;-80
2022/12/11 10:33:54;;;;;;;;;27.25;23.75;;;;;5.79;73.14;97957.09;5034204;28;8859;-82
2022/12/11 10:36:27;;;;;;;;;19.50;18.75;;;;;5.71;72.34;97953.69;5033503;28;8860;-81
2022/12/11 10:38:56;;;;;;;;;20.67;19.67;;;;;5.64;72.57;97952.88;5017397;28;8843;-80
2022/12/11 10:41:36;;;;;;;;;30.50;24.00;;;;;6.18;72.01;97947.31;5050936;28;8921;-81
2022/12/11 10:44:16;;;;;;;;;32.20;25.20;;;;;5.91;71.25;97940.63;5034200;28;9335;-79
2022/12/11 10:46:45;;;;;;;;;24.50;23.75;;;;;5.74;71.93;97936.41;5032873;28;8863;-83
2022/12/11 10:49:23;;;;;;;;;26.50;26.00;;;;;5.67;73.13;97916.63;5033224;28;8848;-80
2022/12/11 10:51:52;;;;;;;;;23.25;21.25;;;;;5.70;72.27;97903.69;5017255;28;8890;-82
2022/12/11 10:54:31;;;;;;;;;26.00;24.00;;;;;5.73;72.36;97897.63;4994403;28;8892;-80
2022/12/11 10:57:03;;;;;;;;;18.50;14.25;;;;;5.44;73.08;97915.09;5013237;28;8875;-79
2022/12/11 10:59:38;;;;;;;;;29.75;29.25;;;;;5.40;73.95;97910.78;4994871;28;8925;-81
2022/12/11 11:02:21;;;;;;;;;22.50;21.50;;;;;5.57;73.70;97907.25;5010131;28;8847;-80
2022/12/11 11:04:51;;;;;;;;;25.00;25.00;;;;;5.62;73.44;97905.50;4991941;28;8995;-80
2022/12/11 11:07:23;;;;;;;;;33.00;26.00;;;;;5.60;73.44;97917.56;4993579;28;8860;-81
2022/12/11 11:10:06;;;;;;;;;27.00;25.50;;;;;6.00;72.88;97920.72;5013998;28;8879;-79
2022/12/11 11:12:41;;;;;;;;;26.20;22.40;;;;;6.40;71.35;97922.09;4996519;28;8871;-80
2022/12/11 11:15:14;;;;;;;;;20.20;19.80;;;;;6.60;69.44;97919.31;4996721;28;8863;-80
2022/12/11 11:17:46;;;;;;;;;32.00;26.75;;;;;6.24;70.96;97927.41;4996877;28;8876;-79
2022/12/11 11:20:24;;;;;;;;;21.00;19.00;;;;;6.78;69.85;97926.00;4996229;28;8867;-80
2022/12/11 11:22:55;;;;;;;;;26.50;25.25;;;;;6.42;69.97;97941.03;5027230;28;8867;-82
2022/12/11 11:25:26;;;;;;;;;28.20;27.40;;;;;6.36;70.08;97938.53;4991252;28;8867;-79
2022/12/11 11:27:58;;;;;;;;;32.00;25.75;;;;;6.06;71.51;97948.28;4991305;28;8839;-83
2022/12/11 11:30:29;;;;;;;;;27.40;23.80;;;;;5.98;70.60;97944.91;4990943;28;8896;-81
2022/12/11 11:33:02;;;;;;;;;24.00;23.50;;;;;5.96;71.09;97944.06;4991551;28;8971;-81
2022/12/11 11:35:32;;;;;;;;;24.20;21.60;;;;;6.03;70.51;97932.75;5025096;28;8866;-82
2022/12/11 11:38:05;;;;;;;;;42.00;32.50;;;;;5.81;71.07;97939.84;5023742;28;8878;-82
2022/12/11 11:40:39;;;;;;;;;31.00;28.00;;;;;5.70;70.54;97949.41;5011716;28;8864;-80
2022/12/11 11:43:18;;;;;;;;;32.25;30.75;;;;;5.98;70.31;97942.31;5061020;28;8883;-80
2022/12/11 11:45:53;;;;;;;;;22.50;21.25;;;;;5.55;70.93;97950.34;4994742;28;8893;-79
2022/12/11 11:48:33;;;;;;;;;34.50;32.00;;;;;5.68;70.83;97944.22;5030095;28;8875;-81
2022/12/11 11:51:13;;;;;;;;;29.75;28.50;;;;;5.78;71.54;97938.09;5028934;28;8875;-81
2022/12/11 11:53:48;;;;;;;;;40.25;30.25;;;;;5.77;71.34;97925.22;5037165;28;8883;-80
2022/12/11 11:56:23;;;;;;;;;27.25;25.00;;;;;5.42;71.46;97924.56;5055303;28;8860;-82
2022/12/11 11:59:06;;;;;;;;;29.40;26.60;;;;;5.38;71.36;97922.00;5015847;28;8858;-78
2022/12/11 12:01:34;;;;;;;;;22.00;20.00;;;;;5.50;71.56;97916.78;5067608;28;8982;-81
2022/12/11 12:04:04;;;;;;;;;41.75;35.75;;;;;5.51;71.95;97925.38;5016108;28;8859;-81
2022/12/11 12:07:04;;;;;;;;;31.50;28.00;;;;;5.65;70.86;97926.13;4982876;28;8863;-81
2022/12/11 12:09:45;;;;;;;;;43.75;35.75;;;;;5.63;71.92;97927.88;4955620;28;8863;-81